Vonachen Knolls, Illinois
Current Conditions -  °F | °C
As of 10:35 AM on Saturday 22 Nov 2014 (Local Time) from KC75 Reporting Station
Overcast Overcast  
Wind Chill: 43°   Ceiling: 1900
Heat Index: 47°   Visibility: 10mi
Dew Point: 39°   Wind: 8mph
Humidity: 75%   Direction: 210°SSW
Pressure: 29.98"   Gusts: NA
Location:  40.915°N, 89.5303°W
Report Text: KC75 221635Z AUTO 21007KT 10SM OVC019 08/04 A2998 RMK AO2 T00830041
Loading
Personal Weather Stations






























Interactive Weather Map New forecast layout! Learn more

10-Day Weather Forecast

Advertisements
Track Severe Weather on mobile